Time;durP1;ratioP1;P1;durP2;ratioP2;P2;SDS_P1;SDS_P2;PMS_P1;PMS_P2;Temp;Humidity;BMP_temperature;BMP_pressure;BME280_temperature;BME280_humidity;BME280_pressure;Samples;Min_cycle;Max_cycle;Signal;HPM_P1;HPM_P2
2022/12/22 03:28:35;;;;;;;2.15;0.90;;;;;;;10.92;70.81;98376.41;5119998;28;20058;-70
2022/12/22 03:31:26;;;;;;;2.20;0.93;;;;;;;11.06;70.16;98377.63;5121928;29;20166;-71
2022/12/22 03:34:16;;;;;;;1.00;0.90;;;;;;;10.79;71.15;98376.88;5121875;29;20142;-70
2022/12/22 03:37:06;;;;;;;3.00;0.90;;;;;;;11.03;70.27;98359.38;5121289;28;20074;-71
2022/12/22 03:39:56;;;;;;;1.40;0.80;;;;;;;11.09;70.53;98365.84;5124123;28;20047;-71
2022/12/22 03:49:11;;;;;;;0.98;0.80;;;;;;;11.17;69.98;98361.41;5125349;29;20054;-70
2022/12/22 03:52:03;;;;;;;1.75;1.13;;;;;;;11.25;69.54;98344.66;5125104;29;20082;-71
2022/12/22 03:54:53;;;;;;;2.03;0.80;;;;;;;11.37;69.52;98361.94;5121685;29;20058;-71
2022/12/22 03:57:43;;;;;;;2.78;0.88;;;;;;;11.36;69.56;98362.94;5124832;28;20081;-70
2022/12/22 04:00:33;;;;;;;1.20;0.70;;;;;;;11.64;68.18;98355.47;5125172;29;20137;-71
2022/12/22 04:03:23;;;;;;;4.20;1.00;;;;;;;11.44;68.80;98362.09;5125108;29;20055;-70
2022/12/22 04:06:13;;;;;;;1.77;1.00;;;;;;;11.67;68.39;98356.97;5125265;29;20065;-70
2022/12/22 04:09:05;;;;;;;2.58;1.02;;;;;;;12.11;67.00;98365.41;5123445;28;20055;-71
2022/12/22 04:15:05;;;;;;;1.52;0.77;;;;;;;11.93;67.22;98359.47;5125415;29;20057;-70
2022/12/22 04:17:56;;;;;;;3.80;0.93;;;;;;;11.63;68.73;98359.13;5124494;28;20093;-70
2022/12/22 04:20:47;;;;;;;2.47;0.90;;;;;;;11.57;68.88;98356.31;5123646;28;20070;-71
2022/12/22 04:23:37;;;;;;;1.20;0.85;;;;;;;11.89;68.12;98350.19;5122578;29;20153;-71
2022/12/22 04:26:27;;;;;;;5.95;1.45;;;;;;;11.81;67.70;98343.00;5124118;29;20062;-67
2022/12/22 04:29:18;;;;;;;0.90;0.70;;;;;;;11.47;68.96;98325.44;5124383;28;20082;-68
2022/12/22 04:32:08;;;;;;;2.03;0.90;;;;;;;11.80;68.49;98327.25;5136696;28;20524;-71
2022/12/22 04:34:58;;;;;;;2.35;0.70;;;;;;;11.86;68.07;98316.81;5124567;29;20180;-70
2022/12/22 04:37:48;;;;;;;3.72;1.00;;;;;;;11.88;69.22;98336.03;5118781;29;20062;-71
2022/12/22 04:40:39;;;;;;;1.83;0.77;;;;;;;11.50;70.01;98333.06;5119167;29;20052;-71
2022/12/22 04:43:29;;;;;;;1.00;0.63;;;;;;;11.33;70.95;98336.72;5121038;28;20501;-70
2022/12/22 04:46:19;;;;;;;10.55;0.90;;;;;;;11.43;71.35;98329.41;5124260;29;20657;-71
2022/12/22 04:49:10;;;;;;;5.25;1.23;;;;;;;11.79;70.52;98333.53;5122269;28;20058;-70
2022/12/22 04:52:00;;;;;;;3.50;0.90;;;;;;;11.44;72.06;98335.56;5118197;29;20456;-70
2022/12/22 04:54:50;;;;;;;3.50;0.90;;;;;;;11.62;71.35;98303.50;5119209;29;20655;-71
2022/12/22 04:57:40;;;;;;;3.28;0.70;;;;;;;11.69;71.50;98329.25;5121836;28;20125;-71
2022/12/22 05:00:30;;;;;;;5.97;0.88;;;;;;;11.57;72.24;98324.44;5121156;29;20058;-70
2022/12/22 05:03:21;;;;;;;2.55;0.82;;;;;;;11.54;71.91;98317.63;5136556;28;20062;-70
2022/12/22 05:06:11;;;;;;;2.30;0.90;;;;;;;11.58;71.34;98318.94;5123977;29;20060;-70
2022/12/22 05:09:02;;;;;;;4.07;1.00;;;;;;;11.10;73.02;98291.41;5160150;23;20043;-75
2022/12/22 05:11:52;;;;;;;4.28;0.82;;;;;;;11.01;73.83;98305.66;5156211;28;20046;-75
2022/12/22 05:14:42;;;;;;;3.25;0.90;;;;;;;11.11;72.45;98271.84;5143909;28;20055;-75
2022/12/22 05:17:32;;;;;;;1.77;0.90;;;;;;;11.14;73.45;98294.56;5142281;28;20177;-75
2022/12/22 05:20:23;;;;;;;2.30;0.80;;;;;;;11.13;73.33;98303.53;5123992;29;20141;-75
2022/12/22 05:23:14;;;;;;;1.75;0.80;;;;;;;10.90;73.59;98277.63;5123607;29;20115;-75
2022/12/22 05:26:04;;;;;;;3.55;0.95;;;;;;;11.35;72.06;98280.78;5122268;29;20086;-75
2022/12/22 05:28:54;;;;;;;1.73;0.80;;;;;;;11.21;72.13;98275.16;5123433;28;20498;-75
2022/12/22 05:31:44;;;;;;;2.20;0.63;;;;;;;11.21;73.01;98298.22;5122936;29;20058;-74
2022/12/22 05:34:36;;;;;;;4.22;0.90;;;;;;;11.32;71.58;98297.88;5123195;29;20051;-74
2022/12/22 05:37:26;;;;;;;2.70;1.05;;;;;;;11.36;70.38;98277.16;5120587;29;20095;-74
2022/12/22 05:40:16;;;;;;;4.38;1.10;;;;;;;11.41;71.03;98293.41;5106586;29;20498;-74
2022/12/22 05:43:06;;;;;;;4.82;0.90;;;;;;;11.15;72.96;98288.25;5123153;29;20051;-74
2022/12/22 05:45:59;;;;;;;6.50;0.77;;;;;;;11.02;72.50;98283.44;5123313;29;20079;-74
2022/12/22 05:48:50;;;;;;;6.40;1.05;;;;;;;11.38;72.02;98283.13;5122830;28;20055;-74
2022/12/22 05:51:40;;;;;;;4.10;0.90;;;;;;;11.74;69.49;98267.66;5122747;29;20674;-74
2022/12/22 05:54:30;;;;;;;6.13;1.60;;;;;;;11.25;72.00;98287.09;5122259;29;20178;-74
2022/12/22 05:57:20;;;;;;;3.65;0.80;;;;;;;11.13;71.23;98267.22;5120929;29;20189;-74
2022/12/22 06:00:14;;;;;;;2.83;0.80;;;;;;;11.10;72.23;98277.31;5122661;28;20103;-74
2022/12/22 06:03:04;;;;;;;2.28;0.85;;;;;;;11.75;69.22;98270.16;5123221;29;20544;-74
2022/12/22 06:05:55;;;;;;;5.10;0.90;;;;;;;11.86;69.08;98292.06;5108338;29;20490;-74
2022/12/22 06:08:45;;;;;;;4.80;0.93;;;;;;;11.74;68.67;98284.41;5121154;28;20166;-74
2022/12/22 06:11:36;;;;;;;5.28;0.85;;;;;;;11.72;68.01;98259.88;5119645;29;20073;-74
2022/12/22 06:14:26;;;;;;;5.25;0.90;;;;;;;11.64;68.85;98281.09;5122747;29;20054;-74
2022/12/22 06:17:16;;;;;;;3.90;0.70;;;;;;;11.53;69.54;98298.22;5122413;29;20525;-74
2022/12/22 06:20:07;;;;;;;6.75;0.93;;;;;;;11.72;67.91;98288.22;5121552;29;20126;-75
2022/12/22 06:22:58;;;;;;;3.92;1.25;;;;;;;11.98;67.34;98280.91;5121886;28;20530;-74
2022/12/22 06:26:00;;;;;;;3.08;0.70;;;;;;;11.65;68.39;98289.91;5121139;29;20438;-74
2022/12/22 06:28:50;;;;;;;3.35;1.05;;;;;;;11.65;68.97;98284.59;5122362;28;20058;-74
2022/12/22 06:31:40;;;;;;;5.00;0.85;;;;;;;11.59;69.82;98290.56;5121023;29;20054;-74
2022/12/22 06:34:30;;;;;;;4.60;1.40;;;;;;;11.67;69.12;98288.75;5121723;29;20063;-74
2022/12/22 06:37:20;;;;;;;6.22;0.77;;;;;;;11.89;67.76;98281.13;5120807;29;20055;-74
2022/12/22 06:40:11;;;;;;;4.20;1.00;;;;;;;11.81;68.06;98283.75;5121349;29;20498;-74
2022/12/22 06:43:07;;;;;;;5.80;1.05;;;;;;;11.85;68.42;98290.41;5122425;29;20062;-74
2022/12/22 06:45:59;;;;;;;3.45;1.05;;;;;;;12.34;66.82;98299.06;5122156;29;20638;-74
2022/12/22 06:48:49;;;;;;;5.20;0.90;;;;;;;12.36;66.59;98304.22;5121399;28;20058;-74
2022/12/22 06:51:40;;;;;;;6.15;1.00;;;;;;;12.16;66.13;98270.06;5134359;28;20429;-74
2022/12/22 06:54:30;;;;;;;4.15;0.80;;;;;;;12.30;66.28;98289.78;5119761;29;20068;-74
2022/12/22 06:57:20;;;;;;;4.63;1.23;;;;;;;12.35;66.20;98291.91;5119930;29;20083;-74
2022/12/22 07:00:11;;;;;;;6.38;1.08;;;;;;;12.45;65.00;98296.03;5120482;29;20043;-75
2022/12/22 07:03:01;;;;;;;5.18;1.02;;;;;;;12.01;66.41;98290.38;5119661;29;20493;-74
2022/12/22 07:05:51;;;;;;;6.65;1.17;;;;;;;12.10;66.34;98307.94;5122071;29;20141;-74
2022/12/22 07:08:41;;;;;;;8.07;1.13;;;;;;;12.49;64.73;98311.66;5120976;28;20058;-74
2022/12/22 07:11:31;;;;;;;11.30;1.63;;;;;;;12.15;65.01;98292.34;5121844;28;20055;-74
2022/12/22 07:14:21;;;;;;;7.18;1.67;;;;;;;12.20;65.87;98315.72;5123683;29;20091;-75
2022/12/22 07:17:11;;;;;;;8.07;1.10;;;;;;;12.42;65.85;98338.94;5124393;29;20058;-75
2022/12/22 07:20:01;;;;;;;12.85;1.77;;;;;;;11.87;66.18;98313.16;5124677;29;20051;-74
2022/12/22 07:22:51;;;;;;;8.77;1.48;;;;;;;12.44;64.79;98328.09;5125544;29;20059;-74
2022/12/22 07:25:41;;;;;;;6.10;1.10;;;;;;;12.26;65.53;98324.88;5124995;29;20055;-73
2022/12/22 07:28:37;;;;;;;12.52;2.20;;;;;;;12.06;65.95;98319.09;5120786;28;20125;-73
2022/12/22 07:31:27;;;;;;;7.57;1.40;;;;;;;12.14;65.58;98314.56;5123002;29;20043;-73
2022/12/22 07:34:18;;;;;;;10.20;1.50;;;;;;;12.41;64.76;98323.94;5122197;29;20098;-73
2022/12/22 07:37:08;;;;;;;10.77;1.38;;;;;;;12.66;63.96;98337.16;5124154;29;20531;-72
2022/12/22 07:39:58;;;;;;;10.75;1.60;;;;;;;12.31;64.86;98328.66;5125109;28;20082;-73
2022/12/22 07:42:48;;;;;;;13.10;1.48;;;;;;;12.02;66.37;98339.00;5123704;29;20179;-73
2022/12/22 07:45:38;;;;;;;7.90;1.40;;;;;;;12.57;63.88;98339.03;5123826;29;20086;-73
2022/12/22 07:51:39;;;;;;;8.55;2.13;;;;;;;12.18;65.42;98347.78;5124094;29;20162;-72
2022/12/22 07:54:29;;;;;;;9.52;2.25;;;;;;;12.46;64.41;98332.25;5123767;29;20063;-71
2022/12/22 07:57:25;;;;;;;10.85;1.55;;;;;;;12.34;64.12;98348.75;5122618;29;20101;-73
2022/12/22 08:00:17;;;;;;;9.07;1.30;;;;;;;12.37;63.86;98354.53;5123253;29;20070;-74
2022/12/22 08:03:10;;;;;;;8.32;1.48;;;;;;;12.37;63.64;98338.59;5110889;29;20143;-74
2022/12/22 08:06:03;;;;;;;7.35;1.40;;;;;;;12.36;63.89;98346.75;5125128;29;20114;-71
2022/12/22 08:08:54;;;;;;;6.30;1.10;;;;;;;12.86;61.59;98335.72;5124167;28;20110;-72
2022/12/22 08:11:44;;;;;;;14.43;1.88;;;;;;;12.47;63.10;98343.72;5121233;29;20516;-72
2022/12/22 08:14:34;;;;;;;10.07;1.40;;;;;;;12.53;62.73;98340.38;5122697;29;20050;-72
2022/12/22 08:17:28;;;;;;;9.68;1.55;;;;;;;12.43;63.29;98326.47;5123667;29;20097;-73
2022/12/22 08:20:18;;;;;;;13.60;1.50;;;;;;;12.57;62.08;98344.34;5124084;29;20054;-73
2022/12/22 08:23:08;;;;;;;14.93;1.80;;;;;;;12.40;62.91;98334.78;5114733;28;20433;-73
2022/12/22 08:26:04;;;;;;;9.63;1.60;;;;;;;12.51;62.83;98331.72;5123511;29;20057;-73
2022/12/22 08:29:09;;;;;;;7.88;1.10;;;;;;;12.21;62.79;98318.22;5123405;28;20055;-72
2022/12/22 08:32:00;;;;;;;9.95;1.60;;;;;;;12.69;62.69;98342.97;5119678;29;20601;-71
2022/12/22 08:34:52;;;;;;;11.05;1.17;;;;;;;12.18;64.02;98315.06;5122536;29;20429;-71
2022/12/22 08:37:44;;;;;;;8.27;1.27;;;;;;;12.81;62.30;98330.09;5121387;28;20122;-72
2022/12/22 08:40:35;;;;;;;4.72;0.82;;;;;;;12.75;61.74;98337.94;5122791;29;20101;-71
2022/12/22 08:43:25;;;;;;;9.02;1.30;;;;;;;12.50;61.62;98302.66;5121910;29;20646;-71
2022/12/22 08:46:19;;;;;;;8.43;1.50;;;;;;;12.61;62.53;98328.88;5123329;29;20043;-71
2022/12/22 08:49:12;;;;;;;5.03;1.10;;;;;;;12.51;62.93;98320.28;5117233;28;20070;-71
2022/12/22 08:52:05;;;;;;;5.82;1.42;;;;;;;13.06;61.27;98330.78;5121847;29;20061;-71
2022/12/22 08:55:06;;;;;;;13.27;1.30;;;;;;;12.82;62.17;98322.97;5107262;29;20074;-71
2022/12/22 08:58:01;;;;;;;6.80;1.20;;;;;;;12.69;62.02;98319.03;5121597;29;20066;-71
2022/12/22 09:00:54;;;;;;;11.07;1.63;;;;;;;12.85;61.76;98333.25;5121885;29;20051;-71
2022/12/22 09:03:52;;;;;;;11.65;1.55;;;;;;;12.86;61.95;98340.22;5122825;29;20585;-71
2022/12/22 09:06:47;;;;;;;8.43;2.08;;;;;;;13.01;61.23;98348.28;5120265;29;20086;-71
2022/12/22 09:09:38;;;;;;;5.55;1.27;;;;;;;12.79;62.40;98347.25;5133386;28;20070;-72
2022/12/22 09:12:29;;;;;;;11.27;1.42;;;;;;;13.07;60.88;98343.09;5120741;28;20102;-72
2022/12/22 09:15:19;;;;;;;5.72;1.17;;;;;;;13.29;60.45;98340.69;5122455;29;20430;-72
2022/12/22 09:18:10;;;;;;;10.75;1.58;;;;;;;13.06;60.89;98332.63;5122190;28;20425;-72
2022/12/22 09:21:00;;;;;;;9.88;1.90;;;;;;;12.92;60.92;98345.69;5117749;29;20062;-72
2022/12/22 09:23:51;;;;;;;9.25;1.52;;;;;;;11.85;63.90;98307.16;5119212;29;20059;-71
2022/12/22 09:26:41;;;;;;;8.20;1.20;;;;;;;12.49;63.67;98348.88;5119976;29;20061;-71
2022/12/22 09:29:32;;;;;;;5.93;1.15;;;;;;;12.15;64.36;98365.88;5119279;28;20120;-72
2022/12/22 09:32:22;;;;;;;13.07;2.33;;;;;;;12.54;64.32;98367.78;5111257;29;20047;-71
2022/12/22 09:35:12;;;;;;;7.78;1.30;;;;;;;12.70;63.58;98370.38;5122315;28;20054;-71
2022/12/22 09:38:03;;;;;;;8.93;1.25;;;;;;;12.84;63.07;98371.50;5121132;28;20110;-72
2022/12/22 09:40:56;;;;;;;8.82;1.23;;;;;;;12.57;63.98;98368.28;5121164;29;20054;-71
2022/12/22 09:43:47;;;;;;;6.93;1.17;;;;;;;12.56;63.23;98366.63;5121821;29;20141;-72
2022/12/22 09:46:38;;;;;;;7.18;1.13;;;;;;;12.54;63.66;98357.97;5121214;29;20714;-72
2022/12/22 09:49:28;;;;;;;8.55;1.20;;;;;;;12.55;63.54;98369.44;5121744;28;20449;-70
2022/12/22 09:52:43;;;;;;;11.05;1.23;;;;;;;12.43;64.17;98375.13;5119456;29;20055;-69
2022/12/22 09:55:38;;;;;;;;;;;;;;;12.80;62.90;98373.66;5121619;29;20186;-71
2022/12/22 09:58:31;;;;;;;;;;;;;;;12.53;64.08;98377.59;5120834;28;20322;-73
2022/12/22 10:01:31;;;;;;;6.07;1.25;;;;;;;12.62;64.76;98379.25;5119243;29;20415;-73
2022/12/22 10:04:33;;;;;;;6.95;0.93;;;;;;;12.91;63.21;98391.94;5119472;29;20047;-73
2022/12/22 10:07:34;;;;;;;5.20;1.13;;;;;;;12.76;65.06;98390.16;5103844;29;20055;-73
2022/12/22 10:10:29;;;;;;;5.18;1.08;;;;;;;12.20;66.29;98396.28;5118537;29;20098;-71
2022/12/22 10:13:19;;;;;;;9.02;1.10;;;;;;;11.79;67.66;98371.56;5119378;29;20062;-73
2022/12/22 10:16:20;;;;;;;8.75;1.40;;;;;;;12.09;67.52;98394.00;5119881;29;20071;-72
2022/12/22 10:19:12;;;;;;;6.85;1.10;;;;;;;12.28;68.31;98407.91;5119619;28;20059;-70
2022/12/22 10:22:21;;;;;;;7.38;1.42;;;;;;;12.42;67.03;98391.28;5117060;29;20137;-70
2022/12/22 10:25:32;;;;;;;10.32;1.25;;;;;;;11.84;68.90;98397.63;5117530;29;20062;-69
2022/12/22 10:28:46;;;;;;;6.40;1.52;;;;;;;11.67;70.13;98404.75;5119009;28;20066;-72
2022/12/22 10:32:22;;;;;;;7.10;1.30;;;;;;;11.87;69.46;98415.91;5119083;29;20054;-70
2022/12/22 10:35:13;;;;;;;5.13;1.00;;;;;;;12.29;68.73;98410.41;5119304;29;20061;-74
2022/12/22 10:38:14;;;;;;;12.23;1.45;;;;;;;12.02;68.77;98406.28;5118906;28;20458;-73
2022/12/22 10:41:12;;;;;;;6.38;1.15;;;;;;;11.98;69.09;98431.50;5117277;29;20130;-74
2022/12/22 10:44:08;;;;;;;10.15;1.38;;;;;;;12.03;67.88;98418.56;5118729;29;20130;-74
2022/12/22 10:47:09;;;;;;;9.65;1.20;;;;;;;12.17;68.80;98417.06;5117712;28;20186;-74
2022/12/22 10:50:07;;;;;;;8.23;1.27;;;;;;;12.22;68.94;98410.25;5119446;29;20043;-71
2022/12/22 10:52:58;;;;;;;4.85;1.02;;;;;;;12.29;68.32;98412.25;5118848;29;20138;-71
2022/12/22 10:56:04;;;;;;;9.25;1.05;;;;;;;12.17;68.74;98409.09;5117449;29;20182;-71
2022/12/22 10:59:18;;;;;;;6.53;1.58;;;;;;;12.49;67.36;98418.00;5116112;28;20054;-74
2022/12/22 11:02:25;;;;;;;5.90;0.95;;;;;;;12.43;66.99;98396.41;5120068;29;20422;-72
2022/12/22 11:05:15;;;;;;;4.32;1.02;;;;;;;12.34;67.91;98397.41;5120344;29;20051;-72
2022/12/22 11:08:18;;;;;;;4.72;0.98;;;;;;;12.44;67.17;98398.06;5117919;28;20130;-73
2022/12/22 11:11:12;;;;;;;4.95;0.90;;;;;;;12.60;66.76;98399.03;5118541;29;20414;-73
2022/12/22 11:14:12;;;;;;;7.10;1.42;;;;;;;12.79;66.00;98395.13;5119274;29;20106;-74
2022/12/22 11:17:16;;;;;;;5.38;1.27;;;;;;;12.62;65.78;98402.34;5117042;29;20146;-72
2022/12/22 11:20:28;;;;;;;2.70;0.93;;;;;;;12.23;67.44;98406.59;5118453;29;20063;-70
2022/12/22 11:23:24;;;;;;;5.57;1.35;;;;;;;12.67;66.44;98403.47;5119045;29;20096;-72
2022/12/22 11:26:31;;;;;;;5.78;0.93;;;;;;;12.64;66.10;98395.84;5118778;29;20054;-71
2022/12/22 11:29:51;;;;;;;7.45;1.52;;;;;;;12.56;67.00;98400.38;5120422;28;20170;-73
2022/12/22 11:33:14;;;;;;;5.85;1.50;;;;;;;12.52;66.99;98405.22;5120380;29;20054;-70
2022/12/22 11:36:14;;;;;;;4.68;0.80;;;;;;;11.98;67.68;98368.56;5117255;29;20629;-74
2022/12/22 11:39:14;;;;;;;9.73;0.93;;;;;;;12.40;66.98;98411.88;5120126;28;20051;-73
2022/12/22 11:42:23;;;;;;;2.40;0.80;;;;;;;11.98;67.93;98419.06;5113305;29;20054;-75
2022/12/22 11:45:28;;;;;;;4.47;0.88;;;;;;;12.02;67.64;98406.28;5119648;29;20253;-73
2022/12/22 11:48:37;;;;;;;3.53;0.70;;;;;;;12.59;65.73;98392.06;5117937;28;20055;-73
2022/12/22 11:51:36;;;;;;;3.58;0.70;;;;;;;12.72;65.62;98400.31;5109683;29;20051;-73
2022/12/22 11:54:44;;;;;;;2.53;0.68;;;;;;;12.31;65.72;98396.94;5117314;29;20470;-69
2022/12/22 11:57:47;;;;;;;2.75;0.70;;;;;;;11.97;67.41;98388.19;5118598;28;20125;-74
2022/12/22 12:00:57;;;;;;;4.78;0.80;;;;;;;12.30;66.54;98405.91;5123700;29;20065;-74
2022/12/22 12:04:44;;;;;;;0.77;0.50;;;;;;;12.41;66.64;98406.38;5124603;29;20043;-72
2022/12/22 12:07:41;;;;;;;1.48;0.52;;;;;;;12.61;66.55;98409.47;5123525;28;20629;-71
2022/12/22 12:10:42;;;;;;;3.20;0.70;;;;;;;12.70;65.71;98386.34;5122584;29;20286;-74
2022/12/22 12:13:43;;;;;;;4.13;0.57;;;;;;;12.78;65.07;98420.91;5123061;29;20047;-71
2022/12/22 12:16:43;;;;;;;2.53;0.85;;;;;;;13.24;64.53;98429.03;5111178;29;20103;-72
2022/12/22 12:19:58;;;;;;;2.53;0.52;;;;;;;12.93;64.88;98418.34;5123421;28;20089;-74
2022/12/22 12:22:57;;;;;;;1.73;0.57;;;;;;;12.52;65.16;98423.81;5121958;29;20079;-74
2022/12/22 12:26:00;;;;;;;6.43;0.90;;;;;;;12.41;66.55;98440.09;5121984;29;20130;-73
2022/12/22 12:29:17;;;;;;;6.10;0.77;;;;;;;12.45;67.60;98428.16;5117799;28;20047;-73
2022/12/22 12:32:07;;;;;;;7.70;0.80;;;;;;;12.91;65.42;98439.81;5122336;29;20050;-73
2022/12/22 12:35:18;;;;;;;7.20;0.85;;;;;;;12.60;66.19;98441.56;5120766;29;20062;-73
2022/12/22 12:38:44;;;;;;;3.97;0.68;;;;;;;12.70;65.63;98448.34;5122373;28;20707;-72
2022/12/22 12:42:00;;;;;;;3.38;0.70;;;;;;;12.92;65.20;98441.47;5118241;28;20050;-72
2022/12/22 12:44:52;;;;;;;4.10;0.90;;;;;;;12.48;66.41;98437.59;5121963;29;20453;-74
2022/12/22 12:47:42;;;;;;;3.78;0.90;;;;;;;12.22;67.82;98468.72;5121487;28;20058;-73
2022/12/22 12:50:37;;;;;;;2.05;0.60;;;;;;;12.35;67.47;98457.59;5121725;29;20130;-71
2022/12/22 12:53:28;;;;;;;5.75;0.70;;;;;;;12.53;67.23;98469.84;5121050;29;20130;-71
2022/12/22 12:57:01;;;;;;;3.50;0.60;;;;;;;12.26;68.28;98473.72;5122538;29;20458;-75
2022/12/22 12:59:55;;;;;;;2.85;0.80;;;;;;;12.28;68.56;98466.38;5121166;28;20059;-76
2022/12/22 13:02:56;;;;;;;3.65;0.70;;;;;;;11.94;69.21;98478.84;5134716;28;20731;-74
2022/12/22 13:05:52;;;;;;;5.18;0.65;;;;;;;12.13;69.07;98485.66;5117113;29;20051;-75
2022/12/22 13:09:15;;;;;;;5.93;1.02;;;;;;;12.64;68.25;98494.25;5119514;28;20050;-73
2022/12/22 13:12:38;;;;;;;4.63;0.77;;;;;;;11.95;69.85;98503.56;5120792;29;20062;-73
2022/12/22 13:15:31;;;;;;;2.95;0.60;;;;;;;11.94;70.15;98499.28;5120890;29;20126;-73
2022/12/22 13:18:24;;;;;;;8.52;1.20;;;;;;;12.16;69.49;98498.63;5119226;28;20070;-74
2022/12/22 13:21:15;;;;;;;3.23;0.77;;;;;;;11.74;70.45;98485.44;5121098;29;20760;-73
2022/12/22 13:24:31;;;;;;;5.53;0.77;;;;;;;12.82;67.55;98518.00;5121721;29;20061;-74
2022/12/22 13:27:21;;;;;;;8.45;0.95;;;;;;;12.58;68.32;98507.38;5105995;29;20134;-74
2022/12/22 13:30:15;;;;;;;4.88;0.80;;;;;;;11.74;70.24;98525.28;5116511;29;20727;-73
2022/12/22 13:33:11;;;;;;;4.00;1.13;;;;;;;12.23;69.38;98520.88;5119705;29;20058;-73
2022/12/22 13:36:02;;;;;;;6.18;1.00;;;;;;;12.35;68.43;98523.19;5119206;29;20642;-73
2022/12/22 13:39:01;;;;;;;5.65;0.95;;;;;;;11.96;69.88;98534.50;5119320;28;20047;-72
2022/12/22 13:41:51;;;;;;;6.43;1.15;;;;;;;11.46;71.18;98543.28;5118429;29;20044;-74
2022/12/22 13:44:41;;;;;;;6.18;1.00;;;;;;;12.25;69.11;98541.13;5116253;29;20051;-73
2022/12/22 13:47:31;;;;;;;8.18;1.33;;;;;;;12.27;68.99;98555.09;5121930;28;20576;-74
2022/12/22 13:50:27;;;;;;;6.03;1.20;;;;;;;12.67;67.38;98544.44;5121463;29;20061;-74
2022/12/22 13:53:27;;;;;;;5.03;1.05;;;;;;;12.41;68.63;98541.97;5121506;29;20051;-74
2022/12/22 13:56:53;;;;;;;10.38;1.10;;;;;;;12.47;68.59;98553.78;5103448;29;20642;-74
2022/12/22 13:59:45;;;;;;;6.85;1.13;;;;;;;11.91;70.18;98552.72;5106232;29;20494;-74
2022/12/22 14:02:35;;;;;;;8.38;0.98;;;;;;;12.43;69.14;98555.94;5121491;28;20057;-74
2022/12/22 14:05:31;;;;;;;6.90;1.00;;;;;;;12.67;68.12;98556.94;5121288;29;20054;-74
2022/12/22 14:08:22;;;;;;;6.22;1.00;;;;;;;13.05;66.83;98551.88;5119174;28;20051;-74
2022/12/22 14:11:12;;;;;;;5.75;0.85;;;;;;;12.52;68.25;98559.44;5121844;29;20525;-74
2022/12/22 14:14:09;;;;;;;3.08;0.90;;;;;;;12.55;68.33;98553.78;5115838;29;20048;-75
2022/12/22 14:17:00;;;;;;;9.73;1.17;;;;;;;13.02;66.55;98549.56;5119440;29;20099;-75
2022/12/22 14:19:54;;;;;;;6.00;1.17;;;;;;;12.44;67.50;98549.63;5119351;29;20091;-76
2022/12/22 14:22:50;;;;;;;4.13;1.20;;;;;;;13.16;65.29;98556.84;5120541;28;20050;-72
2022/12/22 14:25:42;;;;;;;5.63;0.93;;;;;;;13.07;65.47;98563.19;5113987;29;20061;-74
2022/12/22 14:28:40;;;;;;;9.10;1.20;;;;;;;12.37;66.87;98545.13;5116952;28;20556;-73
2022/12/22 14:31:30;;;;;;;8.13;1.30;;;;;;;12.99;65.28;98561.38;5119482;29;20206;-72
2022/12/22 14:34:29;;;;;;;8.68;1.38;;;;;;;12.57;66.39;98565.06;5119643;29;20122;-75
2022/12/22 14:37:23;;;;;;;6.38;1.20;;;;;;;12.97;65.56;98563.34;5120439;29;20536;-74
2022/12/22 14:40:29;;;;;;;9.68;1.95;;;;;;;13.16;64.22;98565.66;5120897;29;20058;-72
2022/12/22 14:43:19;;;;;;;7.68;1.58;;;;;;;13.06;65.02;98559.69;5120700;29;20051;-73
2022/12/22 14:46:09;;;;;;;12.57;2.10;;;;;;;12.82;64.63;98559.75;5118323;29;20048;-73
2022/12/22 14:49:00;;;;;;;4.90;1.52;;;;;;;12.37;66.15;98556.59;5118964;28;20067;-71
2022/12/22 14:52:04;;;;;;;8.57;1.50;;;;;;;12.41;65.79;98565.91;5119727;29;20189;-73
2022/12/22 14:54:55;;;;;;;10.30;1.88;;;;;;;12.81;65.13;98574.03;5118557;29;20762;-72
2022/12/22 14:57:52;;;;;;;8.98;1.60;;;;;;;13.00;63.40;98570.19;5118268;28;20066;-72
2022/12/22 15:00:45;;;;;;;9.32;1.77;;;;;;;12.39;64.66;98578.53;5118620;29;20054;-72
2022/12/22 15:03:37;;;;;;;12.10;1.73;;;;;;;13.06;63.90;98588.97;5120056;28;20105;-73
2022/12/22 15:06:27;;;;;;;11.75;1.40;;;;;;;12.80;64.31;98589.16;5120094;29;20047;-70
2022/12/22 15:09:16;;;;;;;7.38;1.27;;;;;;;13.23;62.67;98596.91;5118511;28;20638;-72
2022/12/22 15:12:26;;;;;;;12.18;1.50;;;;;;;13.08;62.81;98579.00;5120012;29;20058;-73
2022/12/22 15:15:19;;;;;;;10.73;1.85;;;;;;;12.98;63.68;98598.78;5119830;29;20434;-75
2022/12/22 15:18:13;;;;;;;11.35;2.17;;;;;;;13.04;63.05;98592.78;5121221;28;20169;-74
2022/12/22 15:21:03;;;;;;;16.50;1.83;;;;;;;12.70;63.45;98605.28;5121194;28;20055;-74
2022/12/22 15:23:53;;;;;;;18.85;2.40;;;;;;;13.13;62.71;98599.75;5119455;29;20279;-73
2022/12/22 15:26:44;;;;;;;12.57;1.80;;;;;;;12.56;64.08;98591.84;5119112;29;20059;-77
2022/12/22 15:29:36;;;;;;;12.50;1.95;;;;;;;13.03;62.60;98583.16;5119196;28;20182;-75
2022/12/22 15:32:28;;;;;;;35.92;13.85;;;;;;;13.14;62.23;98602.28;5120918;29;20051;-76
2022/12/22 15:35:32;;;;;;;12.27;2.72;;;;;;;13.23;61.85;98603.06;5122979;29;20153;-73
2022/12/22 15:38:24;;;;;;;14.02;3.72;;;;;;;13.14;62.14;98607.59;5119604;28;20055;-76
2022/12/22 15:41:14;;;;;;;13.77;2.40;;;;;;;13.04;62.27;98598.94;5124420;29;20063;-74
2022/12/22 15:44:04;;;;;;;11.43;2.00;;;;;;;13.04;61.74;98608.75;5123407;29;20058;-73
2022/12/22 15:46:56;;;;;;;20.05;2.63;;;;;;;13.16;61.65;98607.41;5121034;29;20054;-73
2022/12/22 15:49:46;;;;;;;15.40;3.55;;;;;;;13.06;61.89;98599.63;5122953;28;20506;-73
2022/12/22 15:52:36;;;;;;;12.63;2.80;;;;;;;12.97;61.25;98589.97;5124291;29;20252;-73
2022/12/22 15:55:26;;;;;;;17.65;3.10;;;;;;;13.09;60.92;98588.63;5120046;29;20544;-73
2022/12/22 15:58:20;;;;;;;19.60;5.95;;;;;;;12.98;60.66;98598.78;5123710;28;20093;-73
2022/12/22 16:01:11;;;;;;;15.30;3.30;;;;;;;13.01;60.43;98599.28;5123988;29;20054;-73
2022/12/22 16:04:01;;;;;;;16.45;4.40;;;;;;;13.00;61.54;98599.47;5122030;29;20434;-74
2022/12/22 16:06:51;;;;;;;18.90;6.00;;;;;;;12.70;61.73;98597.31;5124069;29;20058;-73
2022/12/22 16:09:44;;;;;;;17.98;4.40;;;;;;;12.70;61.44;98607.97;5122363;28;20051;-73
2022/12/22 16:12:48;;;;;;;26.98;7.47;;;;;;;12.94;61.25;98598.28;5124418;29;20055;-73
2022/12/22 16:16:04;;;;;;;15.35;5.20;;;;;;;13.05;61.42;98603.28;5118922;28;21255;-73
2022/12/22 16:18:54;;;;;;;18.63;5.10;;;;;;;13.05;60.96;98597.97;5124002;28;20062;-73
2022/12/22 16:21:47;;;;;;;23.58;2.70;;;;;;;13.14;60.71;98599.63;5125384;28;20081;-74
2022/12/22 16:24:39;;;;;;;11.70;2.30;;;;;;;13.20;60.46;98597.25;5114585;29;20055;-73
2022/12/22 16:27:30;;;;;;;21.77;4.88;;;;;;;12.99;60.64;98598.63;5119396;28;20062;-74
2022/12/22 16:30:24;;;;;;;13.35;2.72;;;;;;;12.90;61.16;98589.81;5123737;29;20118;-73
2022/12/22 16:33:15;;;;;;;14.52;2.65;;;;;;;13.14;60.41;98585.44;5118188;29;20058;-74
2022/12/22 16:36:05;;;;;;;13.25;2.17;;;;;;;12.96;60.62;98568.88;5123681;28;20059;-75
2022/12/22 16:38:55;;;;;;;11.05;2.33;;;;;;;12.62;62.00;98581.38;5124010;28;20055;-74
2022/12/22 16:41:46;;;;;;;12.45;1.85;;;;;;;12.62;61.71;98584.03;5122666;29;20053;-74
2022/12/22 16:44:49;;;;;;;12.65;2.30;;;;;;;12.62;61.66;98584.03;5122197;28;20070;-74
2022/12/22 16:47:52;;;;;;;11.15;1.75;;;;;;;12.51;62.47;98584.34;5122298;28;20082;-73
2022/12/22 16:50:45;;;;;;;11.95;1.80;;;;;;;12.76;61.09;98587.03;5123419;29;20063;-74
2022/12/22 16:53:35;;;;;;;10.52;1.50;;;;;;;12.62;61.28;98575.22;5123652;29;20125;-74
2022/12/22 16:56:29;;;;;;;12.85;1.85;;;;;;;12.75;60.92;98585.34;5122555;29;20074;-74
2022/12/22 16:59:19;;;;;;;7.63;1.37;;;;;;;12.67;60.88;98592.31;5122734;28;20177;-74
2022/12/22 17:02:25;;;;;;;10.45;1.60;;;;;;;12.38;61.69;98594.66;5121255;29;20134;-74
2022/12/22 17:05:26;;;;;;;11.15;2.38;;;;;;;12.54;61.66;98592.00;5123876;29;20137;-74
2022/12/22 17:08:24;;;;;;;11.60;1.73;;;;;;;12.13;62.22;98580.50;5108842;28;20051;-74
2022/12/22 17:11:21;;;;;;;9.23;1.88;;;;;;;12.33;61.85;98597.81;5123155;29;20157;-74
2022/12/22 17:14:31;;;;;;;10.93;2.90;;;;;;;12.18;61.88;98572.88;5122081;29;20130;-74
2022/12/22 17:17:22;;;;;;;26.38;9.02;;;;;;;12.34;62.05;98588.00;5123359;29;20067;-74
2022/12/22 17:20:24;;;;;;;17.75;5.68;;;;;;;12.51;61.43;98586.19;5110060;29;20078;-74
2022/12/22 17:23:30;;;;;;;17.98;3.90;;;;;;;11.93;62.73;98562.22;5118458;28;20054;-75